Time;durP1;ratioP1;P1;durP2;ratioP2;P2;SDS_P1;SDS_P2;PMS_P1;PMS_P2;Temp;Humidity;BMP_temperature;BMP_pressure;BME280_temperature;BME280_humidity;BME280_pressure;Samples;Min_cycle;Max_cycle;Signal;HPM_P1;HPM_P2
2022/05/09 00:00:34;;;;;;;;;;;14.90;99.90;;;;;;5007044;28;19944;-71
2022/05/09 00:03:00;;;;;;;;;;;14.90;99.90;;;;;;5006678;28;19921;-71
2022/05/09 00:05:28;;;;;;;;;;;14.90;99.90;;;;;;5005369;28;19928;-71
2022/05/09 00:07:56;;;;;;;;;;;14.80;99.90;;;;;;5006464;28;20209;-71
2022/05/09 00:10:23;;;;;;;;;;;14.80;99.90;;;;;;5006448;28;19929;-71
2022/05/09 00:12:50;;;;;;;;;;;14.70;99.90;;;;;;5006161;28;19922;-71
2022/05/09 00:15:18;;;;;;;;;;;14.70;99.90;;;;;;5005911;28;19928;-72
2022/05/09 00:17:45;;;;;;;;;;;14.70;99.90;;;;;;5006309;28;19960;-71
2022/05/09 00:20:12;;;;;;;;;;;14.70;99.90;;;;;;5005788;28;19922;-71
2022/05/09 00:22:46;;;;;;;;;;;14.70;99.90;;;;;;5005631;28;20227;-71
2022/05/09 00:25:14;;;;;;;;;;;14.60;99.90;;;;;;5005178;28;19921;-71
2022/05/09 00:27:41;;;;;;;;;;;14.50;99.90;;;;;;5006007;28;19984;-71
2022/05/09 00:30:08;;;;;;;;;;;14.50;99.90;;;;;;5006133;28;19922;-71
2022/05/09 00:32:34;;;;;;;;;;;14.50;99.90;;;;;;5005859;28;19922;-70
2022/05/09 00:35:01;;;;;;;;;;;14.50;99.90;;;;;;5005323;28;19922;-70
2022/05/09 00:37:28;;;;;;;;;;;14.40;99.90;;;;;;5005079;28;19928;-72
2022/05/09 00:39:54;;;;;;;;;;;14.40;99.90;;;;;;5005640;28;19921;-70
2022/05/09 00:42:22;;;;;;;;;;;14.40;99.90;;;;;;5005459;28;20240;-70
2022/05/09 00:44:49;;;;;;;;;;;14.30;99.90;;;;;;5005672;28;19944;-73
2022/05/09 00:47:16;;;;;;;;;;;14.30;99.90;;;;;;5004775;28;19925;-72
2022/05/09 00:49:47;;;;;;;;;;;14.30;99.90;;;;;;5005519;28;19949;-72
2022/05/09 00:52:18;;;;;;;;;;;14.20;99.90;;;;;;5005830;28;19926;-72
2022/05/09 00:54:47;;;;;;;;;;;14.20;99.90;;;;;;5005702;28;19929;-72
2022/05/09 00:57:16;;;;;;;;;;;14.20;99.90;;;;;;5005088;28;19922;-71
2022/05/09 00:59:45;;;;;;;;;;;14.20;99.90;;;;;;5005626;28;19928;-70
2022/05/09 01:02:12;;;;;;;;;;;14.10;99.90;;;;;;5005138;28;19922;-71
2022/05/09 01:04:47;;;;;;;;;;;14.10;99.90;;;;;;5006382;28;19930;-71
2022/05/09 01:07:13;;;;;;;;;;;14.10;99.90;;;;;;5004868;28;19928;-71
2022/05/09 01:09:40;;;;;;;;;;;14.10;99.90;;;;;;5005348;28;20124;-71
2022/05/09 01:12:09;;;;;;;;;;;14.10;99.90;;;;;;5005272;28;19922;-72
2022/05/09 01:14:35;;;;;;;;;;;14.10;99.90;;;;;;5005642;28;19948;-72
2022/05/09 01:17:04;;;;;;;;;;;14.10;99.90;;;;;;5004470;28;19922;-71
2022/05/09 01:19:32;;;;;;;;;;;14.00;99.90;;;;;;5004839;28;20378;-72
2022/05/09 01:22:01;;;;;;;;;;;14.00;99.90;;;;;;5005400;28;19944;-72
2022/05/09 01:24:27;;;;;;;;;;;14.00;99.90;;;;;;5004897;28;19929;-71
2022/05/09 01:26:54;;;;;;;;;;;13.90;99.90;;;;;;5004543;28;19984;-72
2022/05/09 01:29:24;;;;;;;;;;;14.00;99.90;;;;;;5005166;28;20144;-72
2022/05/09 01:31:52;;;;;;;;;;;13.90;99.90;;;;;;5004865;28;19947;-72
2022/05/09 01:34:18;;;;;;;;;;;13.90;99.90;;;;;;5002508;28;20209;-71
2022/05/09 01:36:48;;;;;;;;;;;13.80;99.90;;;;;;5004152;28;19928;-71
2022/05/09 01:39:17;;;;;;;;;;;13.80;99.90;;;;;;5004917;28;20102;-70
2022/05/09 01:41:45;;;;;;;;;;;13.80;99.90;;;;;;5004707;28;20099;-71
2022/05/09 01:44:12;;;;;;;;;;;13.70;99.90;;;;;;5005027;28;19928;-71
2022/05/09 01:49:29;;;;;;;;;;;13.70;99.90;;;;;;5003458;28;19929;-71
2022/05/09 01:49:29;;;;;;;;;;;13.70;99.90;;;;;;5004552;28;19921;-71
2022/05/09 01:51:56;;;;;;;;;;;13.70;99.90;;;;;;5004962;28;19997;-71
2022/05/09 01:54:24;;;;;;;;;;;13.70;99.90;;;;;;5004473;28;19997;-71
2022/05/09 01:56:50;;;;;;;;;;;13.70;99.90;;;;;;5005144;28;19921;-71
2022/05/09 01:59:17;;;;;;;;;;;13.60;99.90;;;;;;5024242;28;19925;-71
2022/05/09 02:01:47;;;;;;;;;;;13.60;99.90;;;;;;5024129;28;19921;-71
2022/05/09 02:04:14;;;;;;;;;;;13.50;99.90;;;;;;5004296;28;19921;-71
2022/05/09 02:06:41;;;;;;;;;;;13.50;99.90;;;;;;5003507;28;19929;-71
2022/05/09 02:09:08;;;;;;;;;;;13.50;99.90;;;;;;5004191;28;20021;-71
2022/05/09 02:11:36;;;;;;;;;;;13.50;99.90;;;;;;5003933;28;19928;-71
2022/05/09 02:14:03;;;;;;;;;;;13.50;99.90;;;;;;5003883;28;19939;-71
2022/05/09 02:16:30;;;;;;;;;;;13.50;99.90;;;;;;5003457;28;19984;-71
2022/05/09 02:18:56;;;;;;;;;;;13.40;99.90;;;;;;5004033;28;19922;-71
2022/05/09 02:21:23;;;;;;;;;;;13.40;99.90;;;;;;5003976;28;19922;-70
2022/05/09 02:23:50;;;;;;;;;;;13.40;99.90;;;;;;5003841;28;19928;-70
2022/05/09 02:26:16;;;;;;;;;;;13.40;99.90;;;;;;5002770;28;19921;-71
2022/05/09 02:28:44;;;;;;;;;;;13.40;99.90;;;;;;5003944;28;19937;-70
2022/05/09 02:31:11;;;;;;;;;;;13.30;99.90;;;;;;5003801;28;19921;-71
2022/05/09 02:33:37;;;;;;;;;;;13.20;99.90;;;;;;5001364;28;19921;-71
2022/05/09 02:36:04;;;;;;;;;;;13.20;99.90;;;;;;5003142;28;19929;-71
2022/05/09 02:38:31;;;;;;;;;;;13.20;99.90;;;;;;5003538;28;20251;-71
2022/05/09 02:40:57;;;;;;;;;;;13.20;99.90;;;;;;5003825;28;20109;-71
2022/05/09 02:43:24;;;;;;;;;;;13.10;99.90;;;;;;5003823;28;19922;-70
2022/05/09 02:45:52;;;;;;;;;;;13.10;99.90;;;;;;5002958;28;19928;-71
2022/05/09 02:48:18;;;;;;;;;;;13.10;99.90;;;;;;5003593;28;19921;-71
2022/05/09 02:50:45;;;;;;;;;;;13.10;99.90;;;;;;5003589;28;19922;-71
2022/05/09 02:53:13;;;;;;;;;;;13.00;99.90;;;;;;5003321;28;19922;-70
2022/05/09 02:55:39;;;;;;;;;;;12.90;99.90;;;;;;5003187;28;19930;-71
2022/05/09 02:58:06;;;;;;;;;;;12.90;99.90;;;;;;5005998;28;20152;-71
2022/05/09 03:00:33;;;;;;;;;;;12.80;99.90;;;;;;5007705;28;20232;-70
2022/05/09 03:05:46;;;;;;;;;;;12.70;99.90;;;;;;5006786;28;20085;-71
2022/05/09 03:08:13;;;;;;;;;;;12.70;99.90;;;;;;5007432;28;19929;-71
2022/05/09 03:10:39;;;;;;;;;;;12.60;99.90;;;;;;5007529;28;19921;-71
2022/05/09 03:13:08;;;;;;;;;;;12.60;99.90;;;;;;5007950;28;19921;-71
2022/05/09 03:15:35;;;;;;;;;;;12.50;99.90;;;;;;5006579;28;19929;-72
2022/05/09 03:18:04;;;;;;;;;;;12.50;99.90;;;;;;5007411;28;20205;-72
2022/05/09 03:20:30;;;;;;;;;;;12.50;99.90;;;;;;5007589;28;19929;-71
2022/05/09 03:22:57;;;;;;;;;;;12.40;99.90;;;;;;5007366;28;19922;-72
2022/05/09 03:25:24;;;;;;;;;;;12.30;99.90;;;;;;5006472;28;19922;-71
2022/05/09 03:27:51;;;;;;;;;;;12.30;99.90;;;;;;5007299;28;19925;-72
2022/05/09 03:30:18;;;;;;;;;;;12.30;99.90;;;;;;5007093;28;19926;-72
2022/05/09 03:32:47;;;;;;;;;;;12.30;99.90;;;;;;5007366;28;19928;-72
2022/05/09 03:35:15;;;;;;;;;;;12.30;99.90;;;;;;5004355;28;19922;-71
2022/05/09 03:37:41;;;;;;;;;;;12.20;99.90;;;;;;5006880;28;19922;-72
2022/05/09 03:40:09;;;;;;;;;;;12.20;99.90;;;;;;5007152;28;19922;-72
2022/05/09 03:42:35;;;;;;;;;;;12.20;99.90;;;;;;5006784;28;19930;-71
2022/05/09 03:45:02;;;;;;;;;;;12.20;99.90;;;;;;5006665;28;19922;-71
2022/05/09 03:47:29;;;;;;;;;;;12.10;99.90;;;;;;5006441;28;19929;-71
2022/05/09 03:49:57;;;;;;;;;;;12.10;99.90;;;;;;5007050;28;19961;-72
2022/05/09 03:52:25;;;;;;;;;;;12.00;99.90;;;;;;5006687;28;19922;-72
2022/05/09 03:54:52;;;;;;;;;;;12.00;99.90;;;;;;5006422;28;19989;-71
2022/05/09 03:57:18;;;;;;;;;;;12.00;99.90;;;;;;5005808;28;19921;-71
2022/05/09 03:59:45;;;;;;;;;;;11.90;99.90;;;;;;5006505;28;20094;-72
2022/05/09 04:02:11;;;;;;;;;;;11.90;99.90;;;;;;5006807;28;19922;-72
2022/05/09 04:04:38;;;;;;;;;;;11.90;99.90;;;;;;5006185;28;19925;-72
2022/05/09 04:07:05;;;;;;;;;;;11.90;99.90;;;;;;5005933;28;20013;-72
2022/05/09 04:09:33;;;;;;;;;;;11.80;99.90;;;;;;5005872;28;19929;-72
2022/05/09 04:11:59;;;;;;;;;;;11.80;99.90;;;;;;5006236;28;19922;-72
2022/05/09 04:17:07;;;;;;;;;;;11.80;99.90;;;;;;5004818;28;19917;-71
2022/05/09 04:19:35;;;;;;;;;;;11.70;99.90;;;;;;4996625;28;19922;-70
2022/05/09 04:22:02;;;;;;;;;;;11.80;99.90;;;;;;4986835;28;19930;-71
2022/05/09 04:24:29;;;;;;;;;;;11.70;99.90;;;;;;5003815;28;19921;-71
2022/05/09 04:26:57;;;;;;;;;;;11.80;99.90;;;;;;5005135;28;19922;-73
2022/05/09 04:29:24;;;;;;;;;;;11.80;99.90;;;;;;5005876;28;19953;-69
2022/05/09 04:31:51;;;;;;;;;;;11.80;99.90;;;;;;5006180;28;19921;-71
2022/05/09 04:34:18;;;;;;;;;;;11.80;99.90;;;;;;5005327;28;19922;-68
2022/05/09 04:36:44;;;;;;;;;;;11.80;99.90;;;;;;5003110;28;20130;-69
2022/05/09 04:39:11;;;;;;;;;;;11.80;99.90;;;;;;5006270;28;19921;-69
2022/05/09 04:41:38;;;;;;;;;;;11.80;99.90;;;;;;5006624;28;20173;-70
2022/05/09 04:44:06;;;;;;;;;;;11.80;99.90;;;;;;5005824;28;19929;-70
2022/05/09 04:46:33;;;;;;;;;;;11.80;99.90;;;;;;5005016;28;19944;-68
2022/05/09 04:49:00;;;;;;;;;;;11.80;99.90;;;;;;5005845;28;19922;-69
2022/05/09 04:51:26;;;;;;;;;;;11.80;99.90;;;;;;5006409;28;19922;-70
2022/05/09 04:53:53;;;;;;;;;;;11.90;99.90;;;;;;5006163;28;19985;-69
2022/05/09 04:56:20;;;;;;;;;;;11.90;99.90;;;;;;5005467;28;19929;-71
2022/05/09 04:58:47;;;;;;;;;;;11.90;99.90;;;;;;5006077;28;19961;-72
2022/05/09 05:01:15;;;;;;;;;;;11.90;99.90;;;;;;5005386;28;19958;-71
2022/05/09 05:03:42;;;;;;;;;;;12.00;99.90;;;;;;5005658;28;19928;-72
2022/05/09 05:06:08;;;;;;;;;;;12.00;99.90;;;;;;5066416;23;19927;-68
2022/05/09 05:08:35;;;;;;;;;;;12.10;99.90;;;;;;5058960;28;20211;-68
2022/05/09 05:11:02;;;;;;;;;;;12.20;99.90;;;;;;5060820;28;19921;-67
2022/05/09 05:13:29;;;;;;;;;;;12.20;99.90;;;;;;5047057;28;19927;-67
2022/05/09 05:15:56;;;;;;;;;;;12.40;99.90;;;;;;5062892;28;20122;-68
2022/05/09 05:18:25;;;;;;;;;;;12.40;99.90;;;;;;5063243;28;19920;-68
2022/05/09 05:20:52;;;;;;;;;;;12.50;99.90;;;;;;5063023;28;20116;-67
2022/05/09 05:23:19;;;;;;;;;;;12.50;99.90;;;;;;5064227;28;19935;-67
2022/05/09 05:25:46;;;;;;;;;;;12.60;99.90;;;;;;5063538;28;19921;-67
2022/05/09 05:28:12;;;;;;;;;;;12.70;99.90;;;;;;5064652;28;19921;-67
2022/05/09 05:30:39;;;;;;;;;;;12.70;99.90;;;;;;5059838;28;19928;-67
2022/05/09 05:33:06;;;;;;;;;;;12.80;99.90;;;;;;5055824;28;19921;-68
2022/05/09 05:35:34;;;;;;;;;;;12.90;99.90;;;;;;5051691;28;19928;-68
2022/05/09 05:38:00;;;;;;;;;;;13.00;99.90;;;;;;5051799;28;19928;-68
2022/05/09 05:40:27;;;;;;;;;;;13.10;99.90;;;;;;5053727;28;19921;-68
2022/05/09 05:42:54;;;;;;;;;;;13.20;99.90;;;;;;5057831;28;19932;-68
2022/05/09 05:45:22;;;;;;;;;;;13.30;99.90;;;;;;5047776;28;19921;-68
2022/05/09 05:47:49;;;;;;;;;;;13.40;99.90;;;;;;5056506;28;19921;-67
2022/05/09 05:50:17;;;;;;;;;;;13.50;99.90;;;;;;5048190;28;20008;-69
2022/05/09 05:52:47;;;;;;;;;;;13.50;99.90;;;;;;5062614;28;19928;-68
2022/05/09 05:55:13;;;;;;;;;;;13.60;99.90;;;;;;5060838;28;19929;-68
2022/05/09 05:57:41;;;;;;;;;;;13.70;99.90;;;;;;5063581;28;19927;-68
2022/05/09 06:00:09;;;;;;;;;;;13.80;99.90;;;;;;5063756;28;19920;-68
2022/05/09 06:02:38;;;;;;;;;;;13.80;99.90;;;;;;5062320;28;19920;-68
2022/05/09 06:05:05;;;;;;;;;;;13.90;99.90;;;;;;5063230;28;19928;-68
2022/05/09 06:07:32;;;;;;;;;;;13.90;99.90;;;;;;5063020;28;19920;-68
2022/05/09 06:10:03;;;;;;;;;;;14.00;99.90;;;;;;5057679;28;19920;-68
2022/05/09 06:12:30;;;;;;;;;;;14.00;99.90;;;;;;5063443;28;19921;-68
2022/05/09 06:17:41;;;;;;;;;;;14.10;99.90;;;;;;5063347;28;19963;-67
2022/05/09 06:20:08;;;;;;;;;;;14.20;99.90;;;;;;5063402;28;19928;-67
2022/05/09 06:22:36;;;;;;;;;;;14.20;99.90;;;;;;5062980;28;19928;-68
2022/05/09 06:25:05;;;;;;;;;;;14.30;99.90;;;;;;5062962;28;20212;-68
2022/05/09 06:27:32;;;;;;;;;;;14.30;99.90;;;;;;5062555;28;19927;-68
2022/05/09 06:30:00;;;;;;;;;;;14.40;99.90;;;;;;5063167;28;20177;-67
2022/05/09 06:32:26;;;;;;;;;;;14.40;99.90;;;;;;5063001;28;19959;-68
2022/05/09 06:34:53;;;;;;;;;;;14.50;99.90;;;;;;5062963;28;19927;-68
2022/05/09 06:37:20;;;;;;;;;;;14.50;99.90;;;;;;5062176;28;19927;-68
2022/05/09 06:39:46;;;;;;;;;;;14.50;99.90;;;;;;5063306;28;20143;-66
2022/05/09 06:42:14;;;;;;;;;;;14.60;99.90;;;;;;5063449;28;19921;-68
2022/05/09 06:44:41;;;;;;;;;;;14.60;99.90;;;;;;5062649;28;19920;-68
2022/05/09 06:47:07;;;;;;;;;;;14.60;99.90;;;;;;5062489;28;19921;-69
2022/05/09 06:49:34;;;;;;;;;;;14.70;99.90;;;;;;5063419;28;19978;-68
2022/05/09 06:52:00;;;;;;;;;;;14.80;99.90;;;;;;5063404;28;19956;-68
2022/05/09 06:54:27;;;;;;;;;;;14.90;99.90;;;;;;5063058;28;19928;-69
2022/05/09 06:56:53;;;;;;;;;;;15.00;99.90;;;;;;5062331;28;20203;-68
2022/05/09 06:59:21;;;;;;;;;;;15.10;99.90;;;;;;5060118;28;20207;-67
2022/05/09 07:01:50;;;;;;;;;;;15.10;99.90;;;;;;5052527;28;19929;-69
2022/05/09 07:04:16;;;;;;;;;;;15.20;99.90;;;;;;5055937;28;19927;-67
2022/05/09 07:06:44;;;;;;;;;;;15.20;99.90;;;;;;5059027;28;19920;-67
2022/05/09 07:09:12;;;;;;;;;;;15.20;99.90;;;;;;5044681;28;19985;-68
2022/05/09 07:11:39;;;;;;;;;;;15.30;99.90;;;;;;5043234;28;19921;-67
2022/05/09 07:14:05;;;;;;;;;;;15.40;99.90;;;;;;5041375;28;19921;-68
2022/05/09 07:16:33;;;;;;;;;;;15.50;99.90;;;;;;5050909;28;19921;-68
2022/05/09 07:19:00;;;;;;;;;;;15.60;99.90;;;;;;5063896;28;19921;-68
2022/05/09 07:21:27;;;;;;;;;;;15.70;99.90;;;;;;5062459;28;19921;-68
2022/05/09 07:23:54;;;;;;;;;;;15.70;99.90;;;;;;5062674;28;19921;-68
2022/05/09 07:26:20;;;;;;;;;;;15.80;99.90;;;;;;5061269;28;19921;-68
2022/05/09 07:28:47;;;;;;;;;;;15.90;99.90;;;;;;5063039;28;19924;-73
2022/05/09 07:31:13;;;;;;;;;;;16.00;99.90;;;;;;5062951;28;19921;-70
2022/05/09 07:33:42;;;;;;;;;;;16.00;99.90;;;;;;5062958;28;20112;-68
2022/05/09 07:36:09;;;;;;;;;;;16.10;99.90;;;;;;5062123;28;19987;-68
2022/05/09 07:38:35;;;;;;;;;;;16.20;99.90;;;;;;5062962;28;19921;-70
2022/05/09 07:41:02;;;;;;;;;;;16.20;99.90;;;;;;5062607;28;19920;-68
2022/05/09 07:43:29;;;;;;;;;;;16.30;99.90;;;;;;5063732;28;19921;-68
2022/05/09 07:45:57;;;;;;;;;;;16.30;99.90;;;;;;5064518;28;19920;-69
2022/05/09 07:48:24;;;;;;;;;;;16.40;99.90;;;;;;5065438;28;19929;-69
2022/05/09 07:50:53;;;;;;;;;;;16.50;99.90;;;;;;5061009;28;19921;-68
2022/05/09 07:53:22;;;;;;;;;;;16.60;99.90;;;;;;5057653;28;20128;-68
2022/05/09 07:55:51;;;;;;;;;;;16.60;99.90;;;;;;5064316;28;19928;-68
2022/05/09 07:58:18;;;;;;;;;;;16.60;99.90;;;;;;5069954;28;19958;-68
2022/05/09 08:00:45;;;;;;;;;;;16.70;99.90;;;;;;5066057;28;19959;-68
2022/05/09 08:03:14;;;;;;;;;;;16.80;99.90;;;;;;5066173;28;19921;-68
2022/05/09 08:05:41;;;;;;;;;;;16.90;99.90;;;;;;5062234;28;19928;-68
2022/05/09 08:08:10;;;;;;;;;;;17.00;99.90;;;;;;5059811;28;20210;-68
2022/05/09 08:10:36;;;;;;;;;;;17.00;99.90;;;;;;5065717;28;19928;-68
2022/05/09 08:13:03;;;;;;;;;;;17.10;99.90;;;;;;5065862;28;20172;-68
2022/05/09 08:15:31;;;;;;;;;;;17.20;99.90;;;;;;5065168;28;19928;-68
2022/05/09 08:17:58;;;;;;;;;;;17.30;99.90;;;;;;5065656;28;20089;-68
2022/05/09 08:20:25;;;;;;;;;;;17.30;99.90;;;;;;5065863;28;20175;-70
2022/05/09 08:22:59;;;;;;;;;;;17.40;99.90;;;;;;5065872;28;19920;-69
2022/05/09 08:25:27;;;;;;;;;;;17.40;99.90;;;;;;5064476;28;19992;-69
2022/05/09 08:27:53;;;;;;;;;;;17.40;99.90;;;;;;5072890;28;19920;-70
2022/05/09 08:30:20;;;;;;;;;;;17.50;99.90;;;;;;5074238;28;19963;-68
2022/05/09 08:32:47;;;;;;;;;;;17.50;99.90;;;;;;5065517;28;20019;-68
2022/05/09 08:35:14;;;;;;;;;;;17.60;99.90;;;;;;5064924;28;19940;-68
2022/05/09 08:37:43;;;;;;;;;;;17.60;99.90;;;;;;5058497;28;20207;-68
2022/05/09 08:40:10;;;;;;;;;;;17.70;99.90;;;;;;5073152;28;19928;-68
2022/05/09 08:42:41;;;;;;;;;;;17.80;99.90;;;;;;5065070;28;20167;-68
2022/05/09 08:45:18;;;;;;;;;;;17.80;99.90;;;;;;5065092;28;19925;-68
2022/05/09 08:47:58;;;;;;;;;;;17.90;99.90;;;;;;5064650;28;19924;-68
2022/05/09 08:50:29;;;;;;;;;;;18.00;99.90;;;;;;5065027;28;19921;-68
2022/05/09 08:52:59;;;;;;;;;;;18.10;99.90;;;;;;5045140;28;19936;-67
2022/05/09 08:55:27;;;;;;;;;;;18.20;99.90;;;;;;5043877;28;20216;-69
2022/05/09 08:57:58;;;;;;;;;;;18.20;99.90;;;;;;5044614;28;19920;-68
2022/05/09 09:00:29;;;;;;;;;;;18.30;99.90;;;;;;5058129;28;20212;-67
2022/05/09 09:03:01;;;;;;;;;;;18.40;99.90;;;;;;5061490;28;19971;-69
2022/05/09 09:05:30;;;;;;;;;;;18.50;99.90;;;;;;5059541;28;20257;-68
2022/05/09 09:08:02;;;;;;;;;;;18.50;99.90;;;;;;5063254;28;19921;-68
2022/05/09 09:10:33;;;;;;;;;;;18.60;99.90;;;;;;5064376;28;19991;-67
2022/05/09 09:13:05;;;;;;;;;;;18.50;99.90;;;;;;5064504;28;20147;-68
2022/05/09 09:15:39;;;;;;;;;;;18.60;99.90;;;;;;5064086;28;20022;-67
2022/05/09 09:18:11;;;;;;;;;;;18.70;99.90;;;;;;5064620;28;19932;-68
2022/05/09 09:20:42;;;;;;;;;;;18.70;99.90;;;;;;5080487;28;19921;-68
2022/05/09 09:23:19;;;;;;;;;;;18.80;99.90;;;;;;5044781;28;19988;-68
2022/05/09 09:25:51;;;;;;;;;;;18.80;99.90;;;;;;5043721;28;19984;-68
2022/05/09 09:28:28;;;;;;;;;;;19.00;99.90;;;;;;5044217;28;19984;-68
2022/05/09 09:30:55;;;;;;;;;;;19.00;99.90;;;;;;5044150;28;19935;-67
2022/05/09 09:33:21;;;;;;;;;;;19.10;99.90;;;;;;5044131;28;19921;-69
2022/05/09 09:35:50;;;;;;;;;;;19.30;99.90;;;;;;5043253;28;20008;-67
2022/05/09 09:38:22;;;;;;;;;;;19.40;99.90;;;;;;5074251;28;20234;-68
2022/05/09 09:40:49;;;;;;;;;;;19.40;99.90;;;;;;5060752;28;19952;-68
2022/05/09 09:43:15;;;;;;;;;;;19.60;99.90;;;;;;5063835;28;19996;-68
2022/05/09 09:45:46;;;;;;;;;;;19.60;99.90;;;;;;5063331;28;19952;-68
2022/05/09 09:48:14;;;;;;;;;;;19.60;99.90;;;;;;5064026;28;20054;-68
2022/05/09 09:50:55;;;;;;;;;;;19.70;99.90;;;;;;5064868;28;19921;-68
2022/05/09 09:53:32;;;;;;;;;;;19.80;99.90;;;;;;5044135;28;20204;-68
2022/05/09 09:56:01;;;;;;;;;;;19.80;99.90;;;;;;5042831;28;19980;-68
2022/05/09 09:58:28;;;;;;;;;;;19.90;99.90;;;;;;5061644;28;20212;-68
2022/05/09 10:01:04;;;;;;;;;;;20.00;99.90;;;;;;5063440;28;19935;-68
2022/05/09 10:03:33;;;;;;;;;;;20.10;99.90;;;;;;5062921;28;20573;-68
2022/05/09 10:06:01;;;;;;;;;;;20.10;99.90;;;;;;5062095;28;19944;-68
2022/05/09 10:08:31;;;;;;;;;;;20.20;99.90;;;;;;5063657;28;20118;-68
2022/05/09 10:11:01;;;;;;;;;;;20.40;99.90;;;;;;5063069;28;19928;-67
2022/05/09 10:13:34;;;;;;;;;;;20.50;99.90;;;;;;5058818;28;19927;-67
2022/05/09 10:16:04;;;;;;;;;;;20.70;99.90;;;;;;5060253;28;20135;-67
2022/05/09 10:18:32;;;;;;;;;;;20.80;99.90;;;;;;5053080;28;19921;-68
2022/05/09 10:21:00;;;;;;;;;;;21.00;99.90;;;;;;5062844;28;19920;-68
2022/05/09 10:26:21;;;;;;;;;;;21.30;99.90;;;;;;5068221;28;20191;-68
2022/05/09 10:28:49;;;;;;;;;;;21.60;99.90;;;;;;5063117;28;19925;-67
2022/05/09 10:31:21;;;;;;;;;;;21.80;99.90;;;;;;5062629;28;19920;-67
2022/05/09 10:33:52;;;;;;;;;;;21.90;99.90;;;;;;5063073;28;20217;-68
2022/05/09 10:36:22;;;;;;;;;;;22.00;99.90;;;;;;5060691;28;19983;-68
2022/05/09 10:38:52;;;;;;;;;;;21.90;99.90;;;;;;5056582;28;20204;-68
2022/05/09 10:41:22;;;;;;;;;;;22.00;99.90;;;;;;5053258;28;19920;-68
2022/05/09 10:43:52;;;;;;;;;;;22.00;99.90;;;;;;5063037;28;20212;-67
2022/05/09 10:46:21;;;;;;;;;;;22.00;99.90;;;;;;5053592;28;19925;-67
2022/05/09 10:48:52;;;;;;;;;;;22.00;99.90;;;;;;5056379;28;19921;-68
2022/05/09 10:51:21;;;;;;;;;;;22.10;99.90;;;;;;5058361;28;19921;-68
2022/05/09 10:53:53;;;;;;;;;;;22.20;99.90;;;;;;5062134;28;20230;-68
2022/05/09 10:56:22;;;;;;;;;;;22.30;99.90;;;;;;5059177;28;19957;-68
2022/05/09 10:58:53;;;;;;;;;;;22.30;99.90;;;;;;5058503;28;19989;-69
2022/05/09 11:01:24;;;;;;;;;;;22.20;99.90;;;;;;5060371;28;19921;-67
2022/05/09 11:03:53;;;;;;;;;;;22.00;99.90;;;;;;5059095;28;19927;-67
2022/05/09 11:06:28;;;;;;;;;;;21.90;99.90;;;;;;5055604;28;19985;-67
2022/05/09 11:09:07;;;;;;;;;;;21.70;99.90;;;;;;5060120;28;19996;-67
2022/05/09 11:11:38;;;;;;;;;;;21.80;99.90;;;;;;5061256;28;19921;-67
2022/05/09 11:14:07;;;;;;;;;;;21.70;99.90;;;;;;5059736;28;19963;-66
2022/05/09 11:16:41;;;;;;;;;;;21.70;99.90;;;;;;5061080;28;20107;-67
2022/05/09 11:19:29;;;;;;;;;;;21.80;99.90;;;;;;5060706;28;19925;-71
2022/05/09 11:21:58;;;;;;;;;;;22.00;99.90;;;;;;5057293;28;19961;-67
2022/05/09 11:24:36;;;;;;;;;;;22.30;99.90;;;;;;5055599;28;19921;-69
2022/05/09 11:27:07;;;;;;;;;;;22.70;99.90;;;;;;5066279;28;19921;-67
2022/05/09 11:29:38;;;;;;;;;;;22.90;99.90;;;;;;5056924;28;19921;-67
2022/05/09 11:32:17;;;;;;;;;;;23.10;99.90;;;;;;5066140;28;19940;-68
2022/05/09 11:34:56;;;;;;;;;;;23.20;99.90;;;;;;5048525;28;19921;-67
2022/05/09 11:37:26;;;;;;;;;;;23.00;99.90;;;;;;5046109;28;19921;-67
2022/05/09 11:40:00;;;;;;;;;;;22.80;99.90;;;;;;5046746;28;19928;-68
2022/05/09 11:45:19;;;;;;;;;;;22.40;99.90;;;;;;5045779;28;19924;-68
2022/05/09 11:47:51;;;;;;;;;;;22.10;99.90;;;;;;5064574;28;19921;-68
2022/05/09 11:50:38;;;;;;;;;;;21.90;99.90;;;;;;5063127;28;19928;-67
2022/05/09 11:53:06;;;;;;;;;;;21.90;99.90;;;;;;5054521;28;20238;-67
2022/05/09 11:55:32;;;;;;;;;;;21.80;99.90;;;;;;5065833;28;19921;-67
2022/05/09 11:58:00;;;;;;;;;;;21.90;99.90;;;;;;5065480;28;19921;-68
2022/05/09 12:00:47;;;;;;;;;;;21.80;99.90;;;;;;5048831;28;19921;-68
2022/05/09 12:03:16;;;;;;;;;;;21.70;99.90;;;;;;5054036;28;19920;-67
2022/05/09 12:05:49;;;;;;;;;;;21.90;99.90;;;;;;5056784;28;19992;-67
2022/05/09 12:08:16;;;;;;;;;;;21.90;99.90;;;;;;5070831;28;19920;-68
2022/05/09 12:10:44;;;;;;;;;;;21.80;99.90;;;;;;5068584;28;19920;-67
2022/05/09 12:13:14;;;;;;;;;;;21.70;99.90;;;;;;5060064;28;20167;-67
2022/05/09 12:15:51;;;;;;;;;;;21.60;99.90;;;;;;5063094;28;19983;-67
2022/05/09 12:18:20;;;;;;;;;;;21.70;99.90;;;;;;5063259;28;20209;-68
2022/05/09 12:21:05;;;;;;;;;;;22.00;99.90;;;;;;5065575;28;19924;-67
2022/05/09 12:24:05;;;;;;;;;;;22.40;99.90;;;;;;5061914;28;20921;-67
2022/05/09 12:26:33;;;;;;;;;;;22.70;99.90;;;;;;5063566;28;19929;-68
2022/05/09 12:29:23;;;;;;;;;;;22.70;99.90;;;;;;5060300;28;19971;-69
2022/05/09 12:31:51;;;;;;;;;;;22.50;99.90;;;;;;5064941;28;20220;-68
2022/05/09 12:34:22;;;;;;;;;;;22.70;99.90;;;;;;5055175;28;19921;-67
2022/05/09 12:36:51;;;;;;;;;;;22.70;99.90;;;;;;5054212;28;19920;-67
2022/05/09 12:39:18;;;;;;;;;;;22.60;99.90;;;;;;5065031;28;19920;-66
2022/05/09 12:41:48;;;;;;;;;;;22.50;99.90;;;;;;5062276;28;19921;-67
2022/05/09 12:44:17;;;;;;;;;;;22.50;99.90;;;;;;5056134;28;19929;-67
2022/05/09 12:46:45;;;;;;;;;;;22.40;99.90;;;;;;5064849;28;19921;-67
2022/05/09 12:49:13;;;;;;;;;;;22.40;99.90;;;;;;5064944;28;20182;-67
2022/05/09 12:51:44;;;;;;;;;;;22.40;99.90;;;;;;5065378;28;19921;-67
2022/05/09 12:54:12;;;;;;;;;;;22.40;99.90;;;;;;5065063;28;19988;-69
2022/05/09 12:56:46;;;;;;;;;;;22.40;99.90;;;;;;5063757;28;20212;-69
2022/05/09 12:59:14;;;;;;;;;;;22.40;99.90;;;;;;5045561;28;19921;-67
2022/05/09 13:01:42;;;;;;;;;;;22.30;99.90;;;;;;5051399;28;19920;-67
2022/05/09 13:04:18;;;;;;;;;;;22.50;99.90;;;;;;5064833;28;19956;-68
2022/05/09 13:06:48;;;;;;;;;;;22.70;99.90;;;;;;5064231;28;19921;-68
2022/05/09 13:09:16;;;;;;;;;;;22.90;99.90;;;;;;5064826;28;19921;-67
2022/05/09 13:11:46;;;;;;;;;;;23.00;99.90;;;;;;5064762;28;20205;-67
2022/05/09 13:14:17;;;;;;;;;;;23.20;99.90;;;;;;5065029;28;19920;-68
2022/05/09 13:16:51;;;;;;;;;;;23.70;99.90;;;;;;5064419;28;19928;-68
2022/05/09 13:19:18;;;;;;;;;;;24.20;99.90;;;;;;5051021;28;19975;-67
2022/05/09 13:21:48;;;;;;;;;;;24.70;99.90;;;;;;5050091;28;19928;-67
2022/05/09 13:24:17;;;;;;;;;;;25.20;99.90;;;;;;5064599;28;19943;-68
2022/05/09 13:26:46;;;;;;;;;;;25.20;99.90;;;;;;5063405;28;19927;-68
2022/05/09 13:29:21;;;;;;;;;;;24.90;99.90;;;;;;5064502;28;19921;-68
2022/05/09 13:31:48;;;;;;;;;;;24.80;99.90;;;;;;5065309;28;19921;-68
2022/05/09 13:34:19;;;;;;;;;;;24.60;99.90;;;;;;5083886;28;19921;-68
2022/05/09 13:36:46;;;;;;;;;;;24.70;99.90;;;;;;5079583;28;19921;-68
2022/05/09 13:39:28;;;;;;;;;;;25.00;99.90;;;;;;5064066;28;19953;-68
2022/05/09 13:41:57;;;;;;;;;;;25.40;99.90;;;;;;5055469;28;19945;-68
2022/05/09 13:44:25;;;;;;;;;;;25.90;99.90;;;;;;5054895;28;20200;-68
2022/05/09 13:46:52;;;;;;;;;;;26.30;98.60;;;;;;5056297;28;19921;-68
2022/05/09 13:49:20;;;;;;;;;;;26.60;99.90;;;;;;5053737;28;20264;-69
2022/05/09 13:51:55;;;;;;;;;;;26.80;99.00;;;;;;5061817;28;19935;-68
2022/05/09 13:54:26;;;;;;;;;;;27.10;98.50;;;;;;5057190;28;19927;-68
2022/05/09 13:57:08;;;;;;;;;;;27.00;96.70;;;;;;5060092;28;19980;-68
2022/05/09 13:59:38;;;;;;;;;;;27.00;98.40;;;;;;5057108;28;19980;-69
2022/05/09 14:02:04;;;;;;;;;;;27.20;97.20;;;;;;5063848;28;19964;-67
2022/05/09 14:04:31;;;;;;;;;;;27.10;95.70;;;;;;5063259;28;20267;-68
2022/05/09 14:06:59;;;;;;;;;;;27.00;95.60;;;;;;5062792;28;19979;-68
2022/05/09 14:09:28;;;;;;;;;;;26.60;95.30;;;;;;5063463;28;19921;-68
2022/05/09 14:11:56;;;;;;;;;;;26.20;94.40;;;;;;5063393;28;20136;-68
2022/05/09 14:14:35;;;;;;;;;;;25.80;95.90;;;;;;5063177;28;19921;-68
2022/05/09 14:17:03;;;;;;;;;;;25.60;95.60;;;;;;5062980;28;19921;-69
2022/05/09 14:19:31;;;;;;;;;;;25.70;95.70;;;;;;5063234;28;19921;-68
2022/05/09 14:22:03;;;;;;;;;;;25.90;94.50;;;;;;5063964;28;20192;-68
2022/05/09 14:24:31;;;;;;;;;;;26.20;96.00;;;;;;5057768;28;19920;-68
2022/05/09 14:29:50;;;;;;;;;;;26.80;95.10;;;;;;5055691;28;20971;-68
2022/05/09 14:32:37;;;;;;;;;;;26.70;94.10;;;;;;5051534;28;19927;-68
2022/05/09 14:35:04;;;;;;;;;;;26.50;94.70;;;;;;5060873;28;20204;-68
2022/05/09 14:37:33;;;;;;;;;;;26.10;94.40;;;;;;5062206;28;19929;-68
2022/05/09 14:40:14;;;;;;;;;;;25.50;95.40;;;;;;5063654;28;19921;-72
2022/05/09 14:42:48;;;;;;;;;;;25.10;95.80;;;;;;5063422;28;20204;-68